Startpagina
METAR-TAF:

METAR-TAF

Vliegvelden :

Internationale luchthaven Changi

Singapore, Singapore

breedte: 01-22N, lengte: 103-59E, hoogte: 5 m

Actueel weer

Dit bericht is 13 minuten geleden gemaakt, om 14:30 UTC
Wind 7 kt uit het zuidoosten, variërend tussen het oosten en het zuiden
Temperatuur 28°C
Vochtigheid 79%
Druk 1010 hPa
Zicht 10 km of meer
Weinig wolken op 1800 ft
Gebroken wolken op 30000 ft

METAR: WSSS 151430Z 14007KT 100V190 9999 FEW018 BKN300 28/24 Q1010 NOSIG

Tijdstip: 22:43 (14:43 UTC)

Verwachting

Dit bericht is 3 uur en het 43 minuten geleden gemaakt, om 11:00 UTC
Verwachting geldig van 15 om 12 UTC tot 16 om 18 UTC
Wind 10 kt uit het zuidzuidoosten
Zicht 10 km of meer
Weinig wolken op 1500 ft
Verspreide wolken op 2000 ft
Tijdelijke
van 16 om 02 UTC tot 16 om 06 UTC
Zicht: 3000 m
Weinig wolken op 1200 ft, Cumulonimbus.
Gebroken wolken op 1500 ft
onweer, regen

TAF: WSSS 151100Z 1512/1618 16010KT 9999 FEW015 SCT020 TEMPO 1602/1606 3000 TSRA FEW012CB BKN015

Waarnemingen en weersverwachtingen van meer dan 4000 vliegvelden (METAR en TAF).

De beschikbare stations zijn de gele en rode punten op de kaart.

Ga met uw muis naar het station om de naam te zien.

Klik dan om waarnemingen en weersverwachtingen te zien.

kaart wijzigen: klik op de groene knoppen met een zwart kruis om in te zoomen, op de groene knop met een streepje om uit te zoomen of op de groene pijlen voor aangrenzende kaarten.


METAR-TAF: